Time;durP1;ratioP1;P1;durP2;ratioP2;P2;SDS_P1;SDS_P2;PMS_P1;PMS_P2;Temp;Humidity;BMP_temperature;BMP_pressure;BME280_temperature;BME280_humidity;BME280_pressure;Samples;Min_cycle;Max_cycle;Signal;HPM_P1;HPM_P2
2024/01/28 06:00:48;;;;;;;15.43;10.80;;;;;;;;;;1741812;28;20754;-74
2024/01/28 06:01:39;;;;;;;13.60;10.45;;;;;;;;;;1741669;28;20438;-75
2024/01/28 06:02:30;;;;;;;16.58;11.98;;;;;;;;;;1741900;28;20217;-75
2024/01/28 06:03:22;;;;;;;16.77;10.93;;;;;;;;;;1742210;28;20605;-75
2024/01/28 06:04:13;;;;;;;15.45;10.48;;;;;;;;;;1743388;28;20223;-75
2024/01/28 06:05:04;;;;;;;14.68;10.10;;;;;;;;;;1749175;28;20244;-74
2024/01/28 06:05:56;;;;;;;14.23;10.15;;;;;;;;;;1749129;28;20194;-75
2024/01/28 06:06:47;;;;;;;15.88;10.57;;;;;;;;;;1735284;28;20204;-74
2024/01/28 06:07:39;;;;;;;14.00;10.40;;;;;;;;;;1735388;28;20203;-75
2024/01/28 06:08:31;;;;;;;13.57;10.32;;;;;;;;;;1746366;28;20215;-75
2024/01/28 06:09:22;;;;;;;16.20;9.52;;;;;;;;;;1749125;28;20678;-74
2024/01/28 06:10:15;;;;;;;16.23;10.73;;;;;;;;;;1745066;28;20199;-75
2024/01/28 06:11:06;;;;;;;20.83;10.70;;;;;;;;;;1741793;28;20207;-74
2024/01/28 06:11:58;;;;;;;12.40;9.50;;;;;;;;;;1741878;28;20599;-74
2024/01/28 06:12:49;;;;;;;16.20;10.00;;;;;;;;;;1741847;28;20191;-75
2024/01/28 06:13:40;;;;;;;13.15;10.02;;;;;;;;;;1742100;28;20652;-74
2024/01/28 06:14:32;;;;;;;12.38;9.52;;;;;;;;;;1742095;28;20219;-74
2024/01/28 06:15:23;;;;;;;14.88;10.40;;;;;;;;;;1742007;28;20321;-75
2024/01/28 06:16:17;;;;;;;15.63;10.88;;;;;;;;;;1742117;28;20631;-75
2024/01/28 06:17:09;;;;;;;17.40;11.15;;;;;;;;;;1742192;28;20203;-74
2024/01/28 06:18:01;;;;;;;21.10;12.18;;;;;;;;;;1746750;28;20203;-74
2024/01/28 06:18:52;;;;;;;16.13;11.50;;;;;;;;;;1742037;28;20275;-74
2024/01/28 06:19:45;;;;;;;17.40;10.93;;;;;;;;;;1742061;28;20231;-74
2024/01/28 06:20:36;;;;;;;16.88;11.75;;;;;;;;;;1742146;28;20207;-75
2024/01/28 06:21:28;;;;;;;17.52;12.38;;;;;;;;;;1743500;28;20225;-75
2024/01/28 06:22:19;;;;;;;20.85;12.80;;;;;;;;;;1741722;28;20211;-75
2024/01/28 06:23:10;;;;;;;18.92;12.55;;;;;;;;;;1742093;28;20199;-74
2024/01/28 06:24:02;;;;;;;19.63;12.20;;;;;;;;;;1741740;28;20604;-74
2024/01/28 06:24:53;;;;;;;16.25;11.55;;;;;;;;;;1742090;28;20210;-75
2024/01/28 06:25:44;;;;;;;18.95;12.25;;;;;;;;;;1742066;28;20701;-74
2024/01/28 06:26:38;;;;;;;17.20;12.15;;;;;;;;;;1742093;28;20254;-75
2024/01/28 06:27:29;;;;;;;24.10;13.10;;;;;;;;;;1746991;28;20215;-75
2024/01/28 06:28:21;;;;;;;18.55;11.52;;;;;;;;;;1747104;28;20195;-75
2024/01/28 06:29:12;;;;;;;16.27;10.65;;;;;;;;;;1745470;28;20293;-74
2024/01/28 06:30:04;;;;;;;17.60;10.77;;;;;;;;;;1748962;28;20194;-74
2024/01/28 06:30:56;;;;;;;16.65;10.45;;;;;;;;;;1746756;28;20659;-75
2024/01/28 06:31:50;;;;;;;16.13;10.55;;;;;;;;;;1741753;28;20676;-75
2024/01/28 06:32:42;;;;;;;18.52;10.50;;;;;;;;;;1742091;28;20672;-75
2024/01/28 06:33:33;;;;;;;15.82;10.55;;;;;;;;;;1741985;28;20206;-74
2024/01/28 06:34:25;;;;;;;15.80;9.52;;;;;;;;;;1742024;28;20268;-74
2024/01/28 06:35:17;;;;;;;17.08;10.38;;;;;;;;;;1742167;28;20206;-74
2024/01/28 06:36:08;;;;;;;13.55;10.05;;;;;;;;;;1741992;28;20207;-75
2024/01/28 06:37:00;;;;;;;12.40;9.48;;;;;;;;;;1742002;28;20649;-74
2024/01/28 06:37:51;;;;;;;13.05;9.07;;;;;;;;;;1742028;28;20206;-75
2024/01/28 06:38:43;;;;;;;15.00;8.90;;;;;;;;;;1744295;28;20264;-74
2024/01/28 06:39:35;;;;;;;12.68;8.90;;;;;;;;;;1741958;28;20195;-75
2024/01/28 06:40:26;;;;;;;13.80;9.75;;;;;;;;;;1743455;28;20206;-75
2024/01/28 06:41:18;;;;;;;12.85;8.35;;;;;;;;;;1748502;28;20205;-75
2024/01/28 06:42:09;;;;;;;11.35;8.52;;;;;;;;;;1742464;28;20697;-75
2024/01/28 06:43:00;;;;;;;13.48;9.25;;;;;;;;;;1741760;28;20249;-75
2024/01/28 06:43:53;;;;;;;12.45;9.48;;;;;;;;;;1741862;28;20226;-75
2024/01/28 06:44:44;;;;;;;12.68;8.27;;;;;;;;;;1747585;28;20702;-75
2024/01/28 06:45:35;;;;;;;13.05;9.18;;;;;;;;;;1748859;28;20709;-75
2024/01/28 06:46:27;;;;;;;11.15;8.65;;;;;;;;;;1744777;28;20202;-75
2024/01/28 06:47:19;;;;;;;9.40;8.20;;;;;;;;;;1741054;28;20199;-75
2024/01/28 06:48:11;;;;;;;10.07;8.05;;;;;;;;;;1744585;28;20203;-75
2024/01/28 06:49:03;;;;;;;10.98;7.82;;;;;;;;;;1748886;28;20213;-75
2024/01/28 06:49:54;;;;;;;11.05;7.75;;;;;;;;;;1747448;28;20198;-75
2024/01/28 06:50:47;;;;;;;11.60;7.40;;;;;;;;;;1741383;28;20218;-75
2024/01/28 06:51:41;;;;;;;12.10;8.07;;;;;;;;;;1735945;28;20207;-75
2024/01/28 06:52:33;;;;;;;10.55;7.68;;;;;;;;;;1735071;28;20713;-75
2024/01/28 06:53:24;;;;;;;13.55;7.43;;;;;;;;;;1735113;28;20573;-75
2024/01/28 06:54:15;;;;;;;9.27;8.15;;;;;;;;;;1741326;28;20202;-74
2024/01/28 06:55:07;;;;;;;11.23;7.38;;;;;;;;;;1741445;28;20198;-75
2024/01/28 06:55:58;;;;;;;10.98;7.95;;;;;;;;;;1741862;28;20206;-74
2024/01/28 06:56:50;;;;;;;10.45;8.55;;;;;;;;;;1741378;28;20199;-75
2024/01/28 06:57:41;;;;;;;9.88;7.97;;;;;;;;;;1741660;28;20210;-75
2024/01/28 06:58:33;;;;;;;11.23;7.55;;;;;;;;;;1741625;28;20270;-75
2024/01/28 06:59:24;;;;;;;11.15;7.18;;;;;;;;;;1742745;28;20214;-75
2024/01/28 07:00:16;;;;;;;9.20;7.32;;;;;;;;;;1748725;28;20580;-75
2024/01/28 07:01:11;;;;;;;8.73;6.90;;;;;;;;;;1748355;28;20202;-75
2024/01/28 07:02:02;;;;;;;8.35;7.30;;;;;;;;;;1739224;28;20203;-74
2024/01/28 07:02:55;;;;;;;8.65;7.00;;;;;;;;;;1741819;28;20581;-75
2024/01/28 07:03:47;;;;;;;8.35;6.25;;;;;;;;;;1741752;28;20223;-75
2024/01/28 07:04:39;;;;;;;8.77;6.65;;;;;;;;;;1741784;28;20579;-75
2024/01/28 07:05:31;;;;;;;9.23;7.28;;;;;;;;;;1741538;28;20203;-75
2024/01/28 07:06:22;;;;;;;10.60;6.75;;;;;;;;;;1741924;28;20557;-75
2024/01/28 07:07:14;;;;;;;9.95;7.13;;;;;;;;;;1744255;28;20653;-75
2024/01/28 07:08:07;;;;;;;9.70;7.20;;;;;;;;;;1748758;28;20225;-75
2024/01/28 07:08:59;;;;;;;11.85;7.78;;;;;;;;;;1747093;28;20203;-76
2024/01/28 07:09:50;;;;;;;9.57;6.65;;;;;;;;;;1741750;28;20270;-75
2024/01/28 07:10:42;;;;;;;7.13;6.07;;;;;;;;;;1741536;28;20219;-74
2024/01/28 07:11:33;;;;;;;7.88;6.75;;;;;;;;;;1739896;28;20671;-75
2024/01/28 07:12:24;;;;;;;9.98;7.80;;;;;;;;;;1741520;28;20277;-75
2024/01/28 07:13:16;;;;;;;8.13;6.70;;;;;;;;;;1741717;28;20199;-74
2024/01/28 07:14:07;;;;;;;7.35;6.55;;;;;;;;;;1741679;28;20199;-75
2024/01/28 07:14:59;;;;;;;8.93;7.25;;;;;;;;;;1741866;28;20280;-74
2024/01/28 07:15:51;;;;;;;9.73;7.15;;;;;;;;;;1741709;28;20230;-74
2024/01/28 07:16:42;;;;;;;9.07;7.18;;;;;;;;;;1744028;28;20195;-75
2024/01/28 07:17:34;;;;;;;9.82;7.05;;;;;;;;;;1748630;28;20195;-75
2024/01/28 07:18:26;;;;;;;9.27;7.50;;;;;;;;;;1747934;28;20217;-75
2024/01/28 07:19:17;;;;;;;10.75;8.05;;;;;;;;;;1741707;28;20203;-75
2024/01/28 07:20:10;;;;;;;9.63;7.50;;;;;;;;;;1741759;28;20738;-75
2024/01/28 07:21:02;;;;;;;8.95;7.35;;;;;;;;;;1747898;28;20210;-74
2024/01/28 07:21:53;;;;;;;8.85;7.13;;;;;;;;;;1745725;28;20198;-75
2024/01/28 07:22:45;;;;;;;9.20;8.18;;;;;;;;;;1746578;28;20283;-75
2024/01/28 07:23:36;;;;;;;8.35;7.22;;;;;;;;;;1742899;28;20195;-74
2024/01/28 07:24:28;;;;;;;11.77;8.07;;;;;;;;;;1744987;28;20703;-74
2024/01/28 07:25:19;;;;;;;12.23;8.55;;;;;;;;;;1748584;28;20618;-74
2024/01/28 07:26:10;;;;;;;10.65;7.80;;;;;;;;;;1746741;28;20186;-74
2024/01/28 07:27:02;;;;;;;10.18;8.35;;;;;;;;;;1741671;28;20202;-74
2024/01/28 07:27:53;;;;;;;11.43;8.75;;;;;;;;;;1741861;28;20210;-74
2024/01/28 07:28:45;;;;;;;11.05;9.00;;;;;;;;;;1748625;28;20202;-75
2024/01/28 07:29:36;;;;;;;12.00;8.80;;;;;;;;;;1748672;28;20202;-75
2024/01/28 07:30:28;;;;;;;11.43;9.35;;;;;;;;;;1742803;28;20199;-75
2024/01/28 07:31:19;;;;;;;14.40;9.85;;;;;;;;;;1741505;28;20223;-75
2024/01/28 07:32:13;;;;;;;12.77;10.02;;;;;;;;;;1741486;28;20199;-75
2024/01/28 07:33:08;;;;;;;13.63;10.60;;;;;;;;;;1741683;28;20611;-75
2024/01/28 07:34:01;;;;;;;14.88;10.13;;;;;;;;;;1745050;28;20199;-76
2024/01/28 07:34:52;;;;;;;11.30;10.05;;;;;;;;;;1748570;28;20202;-75
2024/01/28 07:35:44;;;;;;;14.13;10.45;;;;;;;;;;1746527;28;20206;-75
2024/01/28 07:36:35;;;;;;;10.80;9.57;;;;;;;;;;1741676;28;20203;-75
2024/01/28 07:37:27;;;;;;;11.45;10.15;;;;;;;;;;1742123;28;20203;-76
2024/01/28 07:38:19;;;;;;;14.13;11.77;;;;;;;;;;1748473;28;20207;-76
2024/01/28 07:39:10;;;;;;;13.70;11.75;;;;;;;;;;1748659;28;20618;-78
2024/01/28 07:40:04;;;;;;;14.55;11.98;;;;;;;;;;1741581;28;20191;-75
2024/01/28 07:40:55;;;;;;;18.05;11.52;;;;;;;;;;1741243;28;20203;-75
2024/01/28 07:41:47;;;;;;;12.50;11.30;;;;;;;;;;1744855;28;20275;-76
2024/01/28 07:42:39;;;;;;;12.18;10.40;;;;;;;;;;1741611;28;20203;-76
2024/01/28 07:43:31;;;;;;;13.77;10.57;;;;;;;;;;1744780;28;20256;-76
2024/01/28 07:44:22;;;;;;;15.30;10.88;;;;;;;;;;1748422;28;20230;-75
2024/01/28 07:45:14;;;;;;;12.45;10.55;;;;;;;;;;1739274;28;20215;-76
2024/01/28 07:46:06;;;;;;;12.10;10.27;;;;;;;;;;1736177;28;20199;-75
2024/01/28 07:46:57;;;;;;;12.00;10.77;;;;;;;;;;1735057;28;20541;-76
2024/01/28 07:47:49;;;;;;;12.90;10.35;;;;;;;;;;1741535;28;20200;-76
2024/01/28 07:48:40;;;;;;;16.35;11.40;;;;;;;;;;1741646;28;20207;-75
2024/01/28 07:49:32;;;;;;;13.93;10.10;;;;;;;;;;1744208;28;20256;-76
2024/01/28 07:50:24;;;;;;;11.90;9.75;;;;;;;;;;1741532;28;20218;-77
2024/01/28 07:51:15;;;;;;;12.05;10.85;;;;;;;;;;1741123;28;20579;-75
2024/01/28 07:52:06;;;;;;;11.27;8.68;;;;;;;;;;1740973;28;20642;-76
2024/01/28 07:52:58;;;;;;;11.82;9.50;;;;;;;;;;1741476;28;20202;-74
2024/01/28 07:53:49;;;;;;;10.05;9.02;;;;;;;;;;1741533;28;20583;-75
2024/01/28 07:54:41;;;;;;;11.20;9.48;;;;;;;;;;1742700;28;20222;-75
2024/01/28 07:55:33;;;;;;;11.73;9.05;;;;;;;;;;1748450;28;20675;-75
2024/01/28 07:56:25;;;;;;;14.07;9.75;;;;;;;;;;1741792;28;20249;-75
2024/01/28 07:57:16;;;;;;;11.57;10.20;;;;;;;;;;1734650;28;20207;-75
2024/01/28 07:58:08;;;;;;;9.80;8.73;;;;;;;;;;1738717;28;20202;-76
2024/01/28 07:58:59;;;;;;;11.63;9.38;;;;;;;;;;1740524;28;20210;-76
2024/01/28 07:59:50;;;;;;;10.13;8.50;;;;;;;;;;1741220;28;20199;-76
2024/01/28 08:00:42;;;;;;;11.32;8.70;;;;;;;;;;1741164;28;20260;-75
2024/01/28 08:01:33;;;;;;;11.73;9.60;;;;;;;;;;1740943;28;20199;-76
2024/01/28 08:02:25;;;;;;;9.73;8.73;;;;;;;;;;1738833;28;20204;-76
2024/01/28 08:03:16;;;;;;;11.07;9.38;;;;;;;;;;1740953;28;20206;-75
2024/01/28 08:04:07;;;;;;;10.48;9.40;;;;;;;;;;1741666;28;20191;-77
2024/01/28 08:05:01;;;;;;;10.68;8.77;;;;;;;;;;1748274;28;20209;-75
2024/01/28 08:05:52;;;;;;;9.90;8.63;;;;;;;;;;1738490;28;20202;-75
2024/01/28 08:06:44;;;;;;;10.23;8.25;;;;;;;;;;1741457;28;20199;-76
2024/01/28 08:07:35;;;;;;;10.82;8.93;;;;;;;;;;1741435;28;20203;-76
2024/01/28 08:08:26;;;;;;;10.50;9.05;;;;;;;;;;1741077;28;20289;-75
2024/01/28 08:09:18;;;;;;;9.52;8.52;;;;;;;;;;1741027;28;20545;-74
2024/01/28 08:10:09;;;;;;;9.85;8.85;;;;;;;;;;1741321;28;20624;-74
2024/01/28 08:11:01;;;;;;;8.93;8.02;;;;;;;;;;1741021;28;20203;-75
2024/01/28 08:11:53;;;;;;;11.35;7.85;;;;;;;;;;1741006;28;20256;-76
2024/01/28 08:12:44;;;;;;;9.00;8.02;;;;;;;;;;1741345;28;20210;-76
2024/01/28 08:13:36;;;;;;;9.40;8.40;;;;;;;;;;1741354;28;20199;-75
2024/01/28 08:14:27;;;;;;;10.40;8.35;;;;;;;;;;1748186;28;20229;-76
2024/01/28 08:15:20;;;;;;;9.95;8.48;;;;;;;;;;1748211;28;20202;-75
2024/01/28 08:16:12;;;;;;;9.60;8.57;;;;;;;;;;1742092;28;20203;-75
2024/01/28 08:17:03;;;;;;;11.35;8.43;;;;;;;;;;1740514;28;20199;-76
2024/01/28 08:17:56;;;;;;;9.90;8.95;;;;;;;;;;1739396;28;20223;-75
2024/01/28 08:18:48;;;;;;;12.02;9.90;;;;;;;;;;1739440;28;20211;-75
2024/01/28 08:19:40;;;;;;;14.13;11.00;;;;;;;;;;1739627;28;20199;-75
2024/01/28 08:20:32;;;;;;;12.20;10.68;;;;;;;;;;1738015;28;20199;-75
2024/01/28 08:21:24;;;;;;;11.27;10.18;;;;;;;;;;1738290;28;20209;-75
2024/01/28 08:22:15;;;;;;;11.27;10.07;;;;;;;;;;1738360;28;20661;-76
2024/01/28 08:23:07;;;;;;;13.10;11.88;;;;;;;;;;1738411;28;20225;-75
2024/01/28 08:23:58;;;;;;;12.80;11.57;;;;;;;;;;1734295;28;20587;-75
2024/01/28 08:24:51;;;;;;;13.65;11.55;;;;;;;;;;1734396;28;20289;-75
2024/01/28 08:25:42;;;;;;;11.88;10.68;;;;;;;;;;1740892;28;20211;-75
2024/01/28 08:26:34;;;;;;;10.85;9.90;;;;;;;;;;1741142;28;20195;-76
2024/01/28 08:27:25;;;;;;;10.50;9.48;;;;;;;;;;1743028;28;20624;-75
2024/01/28 08:28:17;;;;;;;11.07;9.98;;;;;;;;;;1740972;28;20190;-75
2024/01/28 08:29:08;;;;;;;11.98;9.93;;;;;;;;;;1743687;28;20208;-76
2024/01/28 08:29:59;;;;;;;11.20;9.65;;;;;;;;;;1740870;28;20249;-75
2024/01/28 08:30:51;;;;;;;10.70;9.60;;;;;;;;;;1741554;28;20561;-75
2024/01/28 08:31:43;;;;;;;11.40;9.45;;;;;;;;;;1738607;28;20195;-75
2024/01/28 08:32:35;;;;;;;10.73;9.60;;;;;;;;;;1741042;28;20256;-76
2024/01/28 08:33:26;;;;;;;10.13;9.13;;;;;;;;;;1744140;28;20216;-75
2024/01/28 08:34:18;;;;;;;12.65;9.43;;;;;;;;;;1740527;28;20199;-77
2024/01/28 08:35:09;;;;;;;11.55;9.70;;;;;;;;;;1741211;28;20214;-76
2024/01/28 08:36:01;;;;;;;10.90;9.57;;;;;;;;;;1738661;28;20195;-76
2024/01/28 08:36:55;;;;;;;10.13;8.55;;;;;;;;;;1740625;28;20203;-76
2024/01/28 08:37:46;;;;;;;10.77;8.60;;;;;;;;;;1741293;28;20203;-76
2024/01/28 08:38:37;;;;;;;8.77;7.82;;;;;;;;;;1743350;28;20199;-75
2024/01/28 08:39:30;;;;;;;11.20;8.60;;;;;;;;;;1743498;28;20222;-76
2024/01/28 08:40:21;;;;;;;9.82;8.88;;;;;;;;;;1741107;28;20242;-75
2024/01/28 08:41:12;;;;;;;9.48;8.48;;;;;;;;;;1740751;28;20229;-74
2024/01/28 08:42:04;;;;;;;10.00;8.38;;;;;;;;;;1741189;28;20592;-75
2024/01/28 08:42:56;;;;;;;9.45;8.50;;;;;;;;;;1742483;28;20206;-75
2024/01/28 08:43:48;;;;;;;9.90;8.32;;;;;;;;;;1741186;28;20203;-76
2024/01/28 08:44:40;;;;;;;9.77;8.30;;;;;;;;;;1746007;28;20580;-76
2024/01/28 08:45:31;;;;;;;13.13;8.80;;;;;;;;;;1748150;28;20198;-75
2024/01/28 08:46:24;;;;;;;10.05;8.80;;;;;;;;;;1744091;28;20199;-75
2024/01/28 08:47:15;;;;;;;13.63;9.52;;;;;;;;;;1741172;28;20199;-75
2024/01/28 08:48:07;;;;;;;13.40;10.68;;;;;;;;;;1743108;28;20199;-76
2024/01/28 08:48:58;;;;;;;11.65;9.88;;;;;;;;;;1748030;28;20210;-76
2024/01/28 08:49:50;;;;;;;11.00;9.90;;;;;;;;;;1747681;28;20254;-75
2024/01/28 08:50:41;;;;;;;10.73;9.73;;;;;;;;;;1740923;28;20207;-76
2024/01/28 08:51:34;;;;;;;10.10;9.10;;;;;;;;;;1741009;28;20199;-75
2024/01/28 08:52:26;;;;;;;11.65;9.60;;;;;;;;;;1746181;28;20213;-77
2024/01/28 08:53:17;;;;;;;11.15;9.02;;;;;;;;;;1741318;28;20210;-77
2024/01/28 08:54:08;;;;;;;11.40;10.23;;;;;;;;;;1745737;28;20206;-77
2024/01/28 08:55:00;;;;;;;19.15;14.82;;;;;;;;;;1742920;28;20215;-75
2024/01/28 08:55:51;;;;;;;15.70;11.00;;;;;;;;;;1744177;28;20213;-75
2024/01/28 08:56:43;;;;;;;11.07;9.88;;;;;;;;;;1747917;28;20292;-75
2024/01/28 08:57:35;;;;;;;11.05;9.40;;;;;;;;;;1746472;28;20210;-75
2024/01/28 08:58:26;;;;;;;11.57;10.38;;;;;;;;;;1741191;28;20206;-75
2024/01/28 08:59:18;;;;;;;11.27;9.38;;;;;;;;;;1740507;28;20195;-75
2024/01/28 09:00:11;;;;;;;10.27;9.27;;;;;;;;;;1734202;28;20299;-75
2024/01/28 09:01:05;;;;;;;10.65;8.90;;;;;;;;;;1733913;28;20191;-75
2024/01/28 09:01:57;;;;;;;10.15;9.05;;;;;;;;;;1746249;28;20202;-75
2024/01/28 09:02:49;;;;;;;11.73;10.32;;;;;;;;;;1744537;28;20245;-74
2024/01/28 09:03:41;;;;;;;10.57;9.32;;;;;;;;;;1745681;28;20297;-76
2024/01/28 09:04:32;;;;;;;10.00;8.88;;;;;;;;;;1747851;28;20226;-75
2024/01/28 09:05:23;;;;;;;11.88;10.70;;;;;;;;;;1744876;28;20207;-76
2024/01/28 09:06:15;;;;;;;11.98;10.77;;;;;;;;;;1741073;28;20199;-75
2024/01/28 09:07:08;;;;;;;16.23;10.88;;;;;;;;;;1742652;28;20207;-76
2024/01/28 09:08:00;;;;;;;10.63;9.63;;;;;;;;;;1747977;28;20205;-76
2024/01/28 09:08:51;;;;;;;12.45;9.88;;;;;;;;;;1744424;28;20210;-75
2024/01/28 09:09:42;;;;;;;10.13;9.00;;;;;;;;;;1740900;28;20540;-77
2024/01/28 09:10:34;;;;;;;12.75;10.95;;;;;;;;;;1737878;28;20211;-75
2024/01/28 09:11:25;;;;;;;13.90;10.77;;;;;;;;;;1736645;28;20199;-75
2024/01/28 09:12:16;;;;;;;12.20;11.00;;;;;;;;;;1740628;28;20207;-76
2024/01/28 09:13:08;;;;;;;13.85;11.40;;;;;;;;;;1740593;28;20213;-76
2024/01/28 09:14:01;;;;;;;13.95;12.55;;;;;;;;;;1740731;28;20199;-75
2024/01/28 09:14:52;;;;;;;15.95;14.02;;;;;;;;;;1743131;28;20249;-75
2024/01/28 09:15:44;;;;;;;16.45;13.10;;;;;;;;;;1747091;28;20206;-75
2024/01/28 09:16:36;;;;;;;12.88;11.57;;;;;;;;;;1746278;28;20202;-76
2024/01/28 09:17:27;;;;;;;13.77;11.18;;;;;;;;;;1740592;28;20256;-76
2024/01/28 09:18:19;;;;;;;10.70;9.57;;;;;;;;;;1740472;28;20447;-76
2024/01/28 09:19:11;;;;;;;11.00;9.90;;;;;;;;;;1740183;28;20203;-76
2024/01/28 09:20:04;;;;;;;10.13;8.98;;;;;;;;;;1740316;28;20199;-76
2024/01/28 09:20:55;;;;;;;11.18;9.23;;;;;;;;;;1735921;28;20677;-76
2024/01/28 09:21:46;;;;;;;11.10;9.88;;;;;;;;;;1733626;28;20204;-76
2024/01/28 09:22:40;;;;;;;13.15;11.27;;;;;;;;;;1737636;28;20286;-77
2024/01/28 09:23:31;;;;;;;10.82;9.75;;;;;;;;;;1740628;28;20207;-75
2024/01/28 09:24:22;;;;;;;16.92;9.85;;;;;;;;;;1742933;28;20260;-76
2024/01/28 09:25:14;;;;;;;13.18;9.77;;;;;;;;;;1747318;28;20194;-75
2024/01/28 09:26:05;;;;;;;10.85;9.27;;;;;;;;;;1741280;28;20678;-75
2024/01/28 09:26:58;;;;;;;11.07;9.98;;;;;;;;;;1747335;28;20202;-75
2024/01/28 09:27:52;;;;;;;12.40;10.57;;;;;;;;;;1747325;28;20778;-76
2024/01/28 09:28:43;;;;;;;11.57;9.95;;;;;;;;;;1733872;28;20206;-74
2024/01/28 09:29:38;;;;;;;12.05;10.85;;;;;;;;;;1733610;28;20638;-76
2024/01/28 09:30:30;;;;;;;12.45;11.07;;;;;;;;;;1741149;28;20562;-75
2024/01/28 09:31:22;;;;;;;15.02;11.27;;;;;;;;;;1739592;28;20711;-75
2024/01/28 09:32:13;;;;;;;12.20;11.00;;;;;;;;;;1740600;28;20230;-75
2024/01/28 09:33:05;;;;;;;11.85;10.65;;;;;;;;;;1740301;28;20337;-76
2024/01/28 09:33:57;;;;;;;14.77;11.15;;;;;;;;;;1743386;28;20263;-76
2024/01/28 09:34:48;;;;;;;14.50;11.93;;;;;;;;;;1743160;28;20219;-75
2024/01/28 09:35:42;;;;;;;12.90;11.18;;;;;;;;;;1741883;28;20256;-75
2024/01/28 09:36:33;;;;;;;13.10;11.73;;;;;;;;;;1747543;28;20202;-76
2024/01/28 09:37:25;;;;;;;11.40;10.27;;;;;;;;;;1747380;28;20243;-74
2024/01/28 09:38:17;;;;;;;12.32;11.10;;;;;;;;;;1740451;28;20206;-76
2024/01/28 09:39:10;;;;;;;12.82;11.20;;;;;;;;;;1740093;28;20211;-76
2024/01/28 09:40:02;;;;;;;11.95;10.65;;;;;;;;;;1740555;28;20217;-74
2024/01/28 09:40:54;;;;;;;12.38;10.70;;;;;;;;;;1736428;28;20721;-75
2024/01/28 09:41:49;;;;;;;13.27;10.98;;;;;;;;;;1744786;28;20281;-76
2024/01/28 09:42:44;;;;;;;13.73;10.77;;;;;;;;;;1747492;28;20206;-75
2024/01/28 09:43:39;;;;;;;11.57;10.38;;;;;;;;;;1741761;28;20297;-74
2024/01/28 09:44:31;;;;;;;11.65;10.45;;;;;;;;;;1733450;28;20220;-76
2024/01/28 09:45:23;;;;;;;12.88;10.10;;;;;;;;;;1739116;28;20202;-75
2024/01/28 09:46:16;;;;;;;14.00;11.65;;;;;;;;;;1747481;28;20232;-76
2024/01/28 09:47:09;;;;;;;11.90;10.77;;;;;;;;;;1745875;28;20199;-76
2024/01/28 09:48:01;;;;;;;12.75;11.50;;;;;;;;;;1740607;28;20210;-76
2024/01/28 09:48:54;;;;;;;12.68;11.38;;;;;;;;;;1740976;28;20195;-76
2024/01/28 09:49:45;;;;;;;14.10;11.32;;;;;;;;;;1747588;28;20277;-76
2024/01/28 09:50:37;;;;;;;12.63;11.43;;;;;;;;;;1741721;28;20260;-75
2024/01/28 09:51:29;;;;;;;11.93;10.73;;;;;;;;;;1739434;28;20276;-75
2024/01/28 09:52:20;;;;;;;15.50;12.35;;;;;;;;;;1740512;28;20559;-75
2024/01/28 09:53:13;;;;;;;12.63;11.32;;;;;;;;;;1741423;28;20595;-74
2024/01/28 09:54:06;;;;;;;14.48;10.88;;;;;;;;;;1740498;28;20195;-75
2024/01/28 09:54:57;;;;;;;12.43;11.18;;;;;;;;;;1743862;28;20211;-75
2024/01/28 09:55:49;;;;;;;13.63;12.15;;;;;;;;;;1747451;28;20202;-75
2024/01/28 09:56:41;;;;;;;15.57;13.00;;;;;;;;;;1745866;28;20203;-79
2024/01/28 09:57:33;;;;;;;13.23;11.93;;;;;;;;;;1740620;28;20231;-78
2024/01/28 09:58:25;;;;;;;13.45;12.05;;;;;;;;;;1740968;28;20222;-79
2024/01/28 09:59:16;;;;;;;13.35;11.68;;;;;;;;;;1747514;28;20209;-78
2024/01/28 10:00:08;;;;;;;13.88;11.98;;;;;;;;;;1746898;28;20222;-79
2024/01/28 10:01:02;;;;;;;13.55;12.15;;;;;;;;;;1737955;28;20199;-78
2024/01/28 10:01:53;;;;;;;14.07;12.63;;;;;;;;;;1740540;28;20203;-78
2024/01/28 10:02:44;;;;;;;13.07;11.77;;;;;;;;;;1740276;28;20294;-80
2024/01/28 10:03:36;;;;;;;12.82;11.52;;;;;;;;;;1740311;28;20222;-79
2024/01/28 10:04:28;;;;;;;12.27;11.05;;;;;;;;;;1743837;28;20241;-83
2024/01/28 10:05:20;;;;;;;12.40;11.10;;;;;;;;;;1747271;28;20261;-78
2024/01/28 10:06:11;;;;;;;14.10;11.30;;;;;;;;;;1745753;28;20676;-79
2024/01/28 10:07:03;;;;;;;12.55;11.23;;;;;;;;;;1740474;28;20566;-78
2024/01/28 10:07:59;;;;;;;12.50;11.10;;;;;;;;;;1740702;28;20203;-78
2024/01/28 10:08:50;;;;;;;13.00;11.80;;;;;;;;;;1747297;28;20278;-78
2024/01/28 10:09:45;;;;;;;14.02;11.88;;;;;;;;;;1740521;28;20191;-78
2024/01/28 10:10:36;;;;;;;16.08;11.60;;;;;;;;;;1742223;28;20215;-78
2024/01/28 10:11:27;;;;;;;13.82;11.88;;;;;;;;;;1739276;28;20776;-78
2024/01/28 10:12:19;;;;;;;12.52;11.23;;;;;;;;;;1742640;28;20209;-78
2024/01/28 10:13:10;;;;;;;12.60;11.40;;;;;;;;;;1741097;28;20207;-80
2024/01/28 10:14:01;;;;;;;13.60;12.00;;;;;;;;;;1744592;28;20651;-81
2024/01/28 10:14:54;;;;;;;14.00;12.48;;;;;;;;;;1747626;28;20229;-80
2024/01/28 10:15:54;;;;;;;12.30;11.10;;;;;;;;;;1745897;28;20203;-79
2024/01/28 10:16:46;;;;;;;14.00;11.80;;;;;;;;;;1740341;28;20199;-80
2024/01/28 10:17:38;;;;;;;14.35;12.00;;;;;;;;;;1740531;28;20191;-80
2024/01/28 10:18:30;;;;;;;13.57;12.38;;;;;;;;;;1740741;28;20223;-81
2024/01/28 10:19:22;;;;;;;13.68;12.27;;;;;;;;;;1741243;28;20210;-79
2024/01/28 10:20:14;;;;;;;15.05;13.48;;;;;;;;;;1747873;28;20202;-80
2024/01/28 10:21:05;;;;;;;14.70;13.15;;;;;;;;;;1742919;28;20294;-80
2024/01/28 10:21:59;;;;;;;13.73;11.98;;;;;;;;;;1746070;28;20198;-80
2024/01/28 10:22:51;;;;;;;12.68;11.48;;;;;;;;;;1748690;28;20210;-79
2024/01/28 10:23:43;;;;;;;14.88;13.35;;;;;;;;;;1744187;28;20198;-80
2024/01/28 10:24:37;;;;;;;17.63;14.00;;;;;;;;;;1741928;28;20227;-80
2024/01/28 10:25:30;;;;;;;15.75;14.18;;;;;;;;;;1745735;28;20260;-80
2024/01/28 10:26:22;;;;;;;14.23;12.82;;;;;;;;;;1741914;28;20199;-79
2024/01/28 10:27:13;;;;;;;14.23;12.73;;;;;;;;;;1744514;28;20207;-78
2024/01/28 10:28:05;;;;;;;12.25;11.18;;;;;;;;;;1748969;28;20202;-79
2024/01/28 10:28:57;;;;;;;12.98;11.63;;;;;;;;;;1748108;28;20252;-81
2024/01/28 10:29:48;;;;;;;12.98;11.23;;;;;;;;;;1742061;28;20274;-78
2024/01/28 10:30:40;;;;;;;12.25;11.05;;;;;;;;;;1741672;28;20691;-79
2024/01/28 10:31:33;;;;;;;12.98;11.68;;;;;;;;;;1741470;28;20205;-78
2024/01/28 10:32:24;;;;;;;14.02;11.75;;;;;;;;;;1742166;28;20215;-78
2024/01/28 10:33:16;;;;;;;12.45;11.15;;;;;;;;;;1746933;28;20195;-77
2024/01/28 10:34:08;;;;;;;14.43;12.48;;;;;;;;;;1748870;28;20209;-78
2024/01/28 10:34:59;;;;;;;12.90;11.43;;;;;;;;;;1745155;28;20199;-79
2024/01/28 10:35:51;;;;;;;12.57;10.88;;;;;;;;;;1742012;28;20191;-79
2024/01/28 10:36:47;;;;;;;12.52;10.90;;;;;;;;;;1744020;28;20214;-79
2024/01/28 10:37:39;;;;;;;15.75;10.07;;;;;;;;;;1748900;28;20244;-79
2024/01/28 10:38:32;;;;;;;11.93;10.75;;;;;;;;;;1747606;28;20581;-79
2024/01/28 10:39:24;;;;;;;14.30;12.80;;;;;;;;;;1742059;28;20203;-78
2024/01/28 10:40:16;;;;;;;13.73;11.73;;;;;;;;;;1741979;28;20202;-78
2024/01/28 10:41:10;;;;;;;15.40;12.27;;;;;;;;;;1737355;28;20202;-79
2024/01/28 10:42:04;;;;;;;12.98;11.65;;;;;;;;;;1741441;28;20199;-80
2024/01/28 10:42:56;;;;;;;13.70;12.30;;;;;;;;;;1741840;28;20711;-78
2024/01/28 10:43:53;;;;;;;14.60;11.68;;;;;;;;;;1741976;28;20349;-78
2024/01/28 10:44:46;;;;;;;14.25;12.65;;;;;;;;;;1747304;28;20229;-79
2024/01/28 10:45:42;;;;;;;14.40;12.88;;;;;;;;;;1748854;28;20573;-78
2024/01/28 10:46:35;;;;;;;13.05;11.65;;;;;;;;;;1744178;28;20211;-79
2024/01/28 10:47:30;;;;;;;12.80;11.48;;;;;;;;;;1742081;28;20667;-79
2024/01/28 10:48:24;;;;;;;12.43;11.25;;;;;;;;;;1745735;28;20209;-80
2024/01/28 10:49:18;;;;;;;12.40;11.18;;;;;;;;;;1748820;28;20205;-80
2024/01/28 10:50:10;;;;;;;13.98;12.57;;;;;;;;;;1745737;28;20577;-79
2024/01/28 10:51:03;;;;;;;14.48;13.07;;;;;;;;;;1740872;28;20206;-79
2024/01/28 10:51:57;;;;;;;13.57;12.20;;;;;;;;;;1743326;28;20202;-82
2024/01/28 10:52:48;;;;;;;15.18;13.10;;;;;;;;;;1748874;28;20675;-81
2024/01/28 10:53:42;;;;;;;15.23;12.15;;;;;;;;;;1748276;28;20205;-80
2024/01/28 10:54:33;;;;;;;15.10;13.60;;;;;;;;;;1741831;28;20227;-80
2024/01/28 10:55:28;;;;;;;14.68;12.70;;;;;;;;;;1741855;28;20195;-79
2024/01/28 10:56:21;;;;;;;15.40;13.82;;;;;;;;;;1742035;28;20210;-79
2024/01/28 10:57:14;;;;;;;14.82;13.30;;;;;;;;;;1741897;28;20257;-81
2024/01/28 10:58:05;;;;;;;16.95;13.55;;;;;;;;;;1744019;28;20195;-79
2024/01/28 10:58:58;;;;;;;16.25;13.23;;;;;;;;;;1741572;28;20282;-80
2024/01/28 10:59:51;;;;;;;14.05;12.60;;;;;;;;;;1746799;28;20214;-80
2024/01/28 11:00:43;;;;;;;15.30;13.70;;;;;;;;;;1748390;28;20304;-78
2024/01/28 11:01:35;;;;;;;19.77;13.82;;;;;;;;;;1744707;28;20202;-81
2024/01/28 11:02:26;;;;;;;13.50;12.10;;;;;;;;;;1748603;28;20207;-78
2024/01/28 11:03:19;;;;;;;15.75;13.93;;;;;;;;;;1747322;28;20194;-80
2024/01/28 11:04:10;;;;;;;14.27;11.85;;;;;;;;;;1741837;28;20199;-79
2024/01/28 11:05:01;;;;;;;13.98;12.32;;;;;;;;;;1741612;28;20194;-79